Time;durP1;ratioP1;P1;durP2;ratioP2;P2;SDS_P1;SDS_P2;PMS_P1;PMS_P2;Temp;Humidity;BMP_temperature;BMP_pressure;BME280_temperature;BME280_humidity;BME280_pressure;Samples;Min_cycle;Max_cycle;Signal;HPM_P1;HPM_P2
2022/06/25 00:01:13;;;;;;;3.83;0.95;;;21.10;57.90;;;;;;5078220;28;20059;-54
2022/06/25 00:03:42;;;;;;;4.13;1.02;;;21.10;58.00;;;;;;5082310;28;20502;-51
2022/06/25 00:06:10;;;;;;;2.42;1.00;;;21.10;58.10;;;;;;5080379;28;20056;-52
2022/06/25 00:08:38;;;;;;;1.73;0.80;;;21.10;58.10;;;;;;5082772;28;20058;-52
2022/06/25 00:11:07;;;;;;;3.10;1.40;;;21.00;58.20;;;;;;5080914;28;20048;-51
2022/06/25 00:13:34;;;;;;;1.58;1.00;;;21.00;58.20;;;;;;5080799;28;20059;-55
2022/06/25 00:16:02;;;;;;;2.17;1.00;;;21.00;58.30;;;;;;5079973;28;20048;-51
2022/06/25 00:18:29;;;;;;;1.83;1.20;;;21.00;58.40;;;;;;5083724;28;20056;-50
2022/06/25 00:20:58;;;;;;;3.65;1.13;;;20.90;58.40;;;;;;5079557;28;20143;-50
2022/06/25 00:23:25;;;;;;;1.35;0.80;;;20.90;58.40;;;;;;5082512;28;20495;-56
2022/06/25 00:25:53;;;;;;;0.93;0.85;;;20.90;58.40;;;;;;5080916;28;20051;-52
2022/06/25 00:28:20;;;;;;;4.05;0.95;;;20.90;58.50;;;;;;5081966;28;20063;-53
2022/06/25 00:30:48;;;;;;;1.23;0.93;;;20.80;58.50;;;;;;5077200;28;20052;-53
2022/06/25 00:33:15;;;;;;;2.28;1.10;;;20.80;58.50;;;;;;5082807;28;20048;-50
2022/06/25 00:35:42;;;;;;;4.60;1.00;;;20.80;58.50;;;;;;5080504;28;20048;-50
2022/06/25 00:38:11;;;;;;;0.85;0.80;;;20.80;58.50;;;;;;5082749;28;20477;-51
2022/06/25 00:40:39;;;;;;;3.53;1.08;;;20.80;58.50;;;;;;5078248;28;20051;-57
2022/06/25 00:43:06;;;;;;;1.50;0.80;;;20.80;58.60;;;;;;5080194;28;20495;-55
2022/06/25 00:45:34;;;;;;;3.67;1.08;;;20.80;58.70;;;;;;5080509;28;20055;-51
2022/06/25 00:48:01;;;;;;;2.63;1.20;;;20.70;58.70;;;;;;5081875;28;20048;-52
2022/06/25 00:50:29;;;;;;;1.40;1.20;;;20.70;58.70;;;;;;5076221;28;20056;-55
2022/06/25 00:52:57;;;;;;;1.05;0.90;;;20.70;58.70;;;;;;5082773;28;20075;-54
2022/06/25 00:55:30;;;;;;;4.97;1.00;;;20.70;58.80;;;;;;5080876;28;20059;-54
2022/06/25 00:58:01;;;;;;;5.28;1.30;;;20.60;58.80;;;;;;5079955;28;20503;-56
2022/06/25 01:00:29;;;;;;;2.75;1.02;;;20.60;58.80;;;;;;5078265;28;20452;-53
2022/06/25 01:02:57;;;;;;;1.45;0.82;;;20.60;58.80;;;;;;5078136;28;20064;-49
2022/06/25 01:05:24;;;;;;;2.28;1.20;;;20.60;58.80;;;;;;5081577;28;20056;-49
2022/06/25 01:07:52;;;;;;;1.80;1.08;;;20.50;58.80;;;;;;5082738;28;20060;-49
2022/06/25 01:10:19;;;;;;;2.10;0.98;;;20.50;58.90;;;;;;5081859;28;20067;-55
2022/06/25 01:12:48;;;;;;;2.45;0.90;;;20.50;59.00;;;;;;5079141;28;20411;-54
2022/06/25 01:15:17;;;;;;;2.00;0.90;;;20.50;59.10;;;;;;5079634;28;20059;-50
2022/06/25 01:17:47;;;;;;;1.88;0.80;;;20.50;59.10;;;;;;5082150;28;20052;-48
2022/06/25 01:20:16;;;;;;;0.80;0.80;;;20.50;59.10;;;;;;5080237;28;20052;-52
2022/06/25 01:22:45;;;;;;;3.15;0.80;;;20.50;59.10;;;;;;5077011;28;20403;-56
2022/06/25 01:25:15;;;;;;;1.88;1.15;;;20.40;59.20;;;;;;5081468;28;20056;-49
2022/06/25 01:27:43;;;;;;;1.15;0.90;;;20.40;59.20;;;;;;5079534;28;20071;-54
2022/06/25 01:30:12;;;;;;;2.58;0.95;;;20.40;59.10;;;;;;5078846;28;20557;-49
2022/06/25 01:32:40;;;;;;;0.98;0.88;;;20.40;59.10;;;;;;5078937;28;20055;-52
2022/06/25 01:35:09;;;;;;;1.23;1.02;;;20.40;59.20;;;;;;5081583;28;20060;-48
2022/06/25 01:37:36;;;;;;;6.70;1.20;;;20.40;59.30;;;;;;5076620;28;20048;-49
2022/06/25 01:40:07;;;;;;;1.70;1.00;;;20.30;59.30;;;;;;5075610;28;20056;-53
2022/06/25 01:45:19;;;;;;;1.65;1.00;;;20.30;59.30;;;;;;5084850;28;20059;-51
2022/06/25 01:47:46;;;;;;;1.98;1.23;;;20.30;59.30;;;;;;5081505;28;20052;-52
2022/06/25 01:50:15;;;;;;;3.13;0.85;;;20.30;59.50;;;;;;5079129;28;20048;-55
2022/06/25 01:52:45;;;;;;;5.13;1.25;;;20.30;59.50;;;;;;5078968;28;20048;-50
2022/06/25 01:55:14;;;;;;;4.60;1.00;;;20.20;59.50;;;;;;5084368;28;20052;-57
2022/06/25 01:57:42;;;;;;;2.33;1.42;;;20.20;59.70;;;;;;5082423;28;20495;-54
2022/06/25 02:00:12;;;;;;;2.65;0.95;;;20.20;59.70;;;;;;5081381;28;20052;-54
2022/06/25 02:02:41;;;;;;;6.35;2.28;;;20.20;59.70;;;;;;5084741;28;20059;-55
2022/06/25 02:05:09;;;;;;;1.20;1.10;;;20.20;59.80;;;;;;5084582;28;20063;-50
2022/06/25 02:07:37;;;;;;;1.42;0.90;;;20.20;59.80;;;;;;5085688;28;20519;-50
2022/06/25 02:10:05;;;;;;;4.10;1.08;;;20.10;59.80;;;;;;5084630;28;20491;-56
2022/06/25 02:12:34;;;;;;;4.38;1.13;;;20.20;59.90;;;;;;5078633;28;20491;-51
2022/06/25 02:15:02;;;;;;;1.38;1.10;;;20.10;59.80;;;;;;5082744;28;20056;-56
2022/06/25 02:17:30;;;;;;;1.42;0.90;;;20.10;59.80;;;;;;5084269;28;20385;-48
2022/06/25 02:19:57;;;;;;;2.40;0.90;;;20.10;59.80;;;;;;5085935;28;20059;-52
2022/06/25 02:22:25;;;;;;;2.92;1.10;;;20.10;59.80;;;;;;5082261;28;20056;-48
2022/06/25 02:24:53;;;;;;;1.85;1.00;;;20.10;59.90;;;;;;5085238;28;20082;-52
2022/06/25 02:27:20;;;;;;;2.70;1.20;;;20.00;59.90;;;;;;5084170;28;20051;-54
2022/06/25 02:29:49;;;;;;;2.35;1.10;;;20.00;59.90;;;;;;5081300;28;20047;-51
2022/06/25 02:32:16;;;;;;;2.97;1.02;;;20.00;60.00;;;;;;5077530;28;20055;-51
2022/06/25 02:34:44;;;;;;;2.40;1.00;;;20.00;60.10;;;;;;5082631;28;20055;-49
2022/06/25 02:37:11;;;;;;;4.05;0.98;;;20.00;60.20;;;;;;5084198;28;20059;-57
2022/06/25 02:39:39;;;;;;;2.15;1.20;;;20.00;60.30;;;;;;5084820;28;20064;-49
2022/06/25 02:42:06;;;;;;;1.60;1.00;;;19.90;60.20;;;;;;5082240;28;20491;-57
2022/06/25 02:44:34;;;;;;;3.92;1.20;;;19.90;60.30;;;;;;5080286;28;20045;-52
2022/06/25 02:47:03;;;;;;;3.08;1.10;;;19.90;60.30;;;;;;5084245;28;20060;-54
2022/06/25 02:49:30;;;;;;;1.00;0.90;;;19.90;60.40;;;;;;5085151;28;20504;-50
2022/06/25 02:51:58;;;;;;;7.40;1.65;;;19.90;60.40;;;;;;5081549;28;20397;-55
2022/06/25 02:54:25;;;;;;;2.47;1.25;;;19.90;60.40;;;;;;5080328;28;20483;-57
2022/06/25 02:59:40;;;;;;;3.40;1.40;;;19.90;60.50;;;;;;5082745;28;20056;-52
2022/06/25 03:02:09;;;;;;;1.27;0.98;;;19.90;60.40;;;;;;5078365;28;20074;-57
2022/06/25 03:04:37;;;;;;;4.30;1.05;;;19.80;60.40;;;;;;5078285;28;20058;-52
2022/06/25 03:07:05;;;;;;;3.00;1.15;;;19.80;60.50;;;;;;5082856;28;20055;-49
2022/06/25 03:09:32;;;;;;;4.50;1.75;;;19.80;60.50;;;;;;5085072;28;20055;-51
2022/06/25 03:12:00;;;;;;;4.28;1.25;;;19.80;60.60;;;;;;5082084;28;20415;-52
2022/06/25 03:14:27;;;;;;;2.97;1.02;;;19.70;60.60;;;;;;5078709;28;20423;-50
2022/06/25 03:16:55;;;;;;;3.65;1.15;;;19.70;60.80;;;;;;5080331;28;20048;-56
2022/06/25 03:19:24;;;;;;;2.38;1.02;;;19.70;60.90;;;;;;5082447;28;20052;-55
2022/06/25 03:21:51;;;;;;;3.30;1.15;;;19.80;60.90;;;;;;5083303;28;20051;-56
2022/06/25 03:24:19;;;;;;;1.80;1.10;;;19.70;60.80;;;;;;5084498;28;20052;-51
2022/06/25 03:26:46;;;;;;;3.03;1.20;;;19.70;60.80;;;;;;5084327;28;20052;-51
2022/06/25 03:29:14;;;;;;;1.58;1.48;;;19.70;60.80;;;;;;5081294;28;20056;-53
2022/06/25 03:31:41;;;;;;;1.30;1.20;;;19.70;60.90;;;;;;5080942;28;20048;-55
2022/06/25 03:34:09;;;;;;;1.50;1.08;;;19.70;60.90;;;;;;5077882;28;20055;-49
2022/06/25 03:36:38;;;;;;;2.10;1.17;;;19.70;60.90;;;;;;5079206;28;20052;-50
2022/06/25 03:39:06;;;;;;;1.63;1.23;;;19.70;61.10;;;;;;5081616;28;20059;-55
2022/06/25 03:41:35;;;;;;;1.80;1.10;;;19.70;61.20;;;;;;5078082;28;20056;-51
2022/06/25 03:44:05;;;;;;;2.13;1.08;;;19.70;61.20;;;;;;5082788;28;20067;-51
2022/06/25 03:46:33;;;;;;;3.08;1.40;;;19.70;61.50;;;;;;5083995;28;20060;-52
2022/06/25 03:49:01;;;;;;;2.20;1.33;;;19.70;61.50;;;;;;5083680;28;20063;-51
2022/06/25 03:51:29;;;;;;;1.63;1.42;;;19.70;61.60;;;;;;5082047;28;20426;-52
2022/06/25 03:53:58;;;;;;;2.53;1.15;;;19.70;61.70;;;;;;5083333;28;20056;-51
2022/06/25 03:56:26;;;;;;;2.53;1.23;;;19.60;61.90;;;;;;5080485;28;20047;-57
2022/06/25 03:58:53;;;;;;;2.17;1.15;;;19.70;61.90;;;;;;5081688;28;20415;-54
2022/06/25 04:01:23;;;;;;;2.00;1.17;;;19.60;61.80;;;;;;5082936;28;20518;-50
2022/06/25 04:03:50;;;;;;;2.78;1.33;;;19.70;61.90;;;;;;5082652;28;20044;-49
2022/06/25 04:06:18;;;;;;;2.55;1.88;;;19.70;62.00;;;;;;5079084;28;20393;-57
2022/06/25 04:08:45;;;;;;;1.73;1.45;;;19.70;62.00;;;;;;5083504;28;20510;-50
2022/06/25 04:11:14;;;;;;;3.40;1.40;;;19.70;62.10;;;;;;5080066;28;20419;-52
2022/06/25 04:13:42;;;;;;;1.60;1.30;;;19.70;62.30;;;;;;5081526;28;20060;-52
2022/06/25 04:16:09;;;;;;;2.72;1.45;;;19.70;62.30;;;;;;5077673;28;20419;-57
2022/06/25 04:18:37;;;;;;;2.35;1.40;;;19.70;62.40;;;;;;5075363;28;20059;-51
2022/06/25 04:21:04;;;;;;;2.92;1.17;;;19.70;62.60;;;;;;5080929;28;20052;-55
2022/06/25 04:23:32;;;;;;;5.00;1.48;;;19.70;62.60;;;;;;5082431;28;20059;-53
2022/06/25 04:25:59;;;;;;;3.15;1.48;;;19.70;62.80;;;;;;5079472;28;20056;-53
2022/06/25 04:31:13;;;;;;;7.10;1.38;;;19.70;63.00;;;;;;5084418;28;20427;-57
2022/06/25 04:33:42;;;;;;;2.92;1.38;;;19.80;63.00;;;;;;5083014;28;20060;-56
2022/06/25 04:36:09;;;;;;;5.50;1.73;;;19.70;62.90;;;;;;5081924;28;20079;-52
2022/06/25 04:38:37;;;;;;;2.03;1.50;;;19.80;63.10;;;;;;5082210;28;20488;-53
2022/06/25 04:41:04;;;;;;;2.33;1.42;;;19.80;63.20;;;;;;5080278;28;20063;-51
2022/06/25 04:43:33;;;;;;;2.65;1.30;;;19.80;63.20;;;;;;5079592;28;20051;-57
2022/06/25 04:46:00;;;;;;;5.60;1.50;;;19.80;63.30;;;;;;5079230;28;20583;-54
2022/06/25 04:48:28;;;;;;;2.20;1.50;;;19.90;63.30;;;;;;5076466;28;21090;-53
2022/06/25 04:50:56;;;;;;;5.80;1.80;;;19.90;63.40;;;;;;5079600;28;20051;-51
2022/06/25 04:53:23;;;;;;;1.98;1.60;;;19.90;63.40;;;;;;5079349;28;20475;-53
2022/06/25 04:55:51;;;;;;;4.53;1.55;;;19.90;63.40;;;;;;5082784;28;20048;-51
2022/06/25 04:58:19;;;;;;;7.65;1.52;;;19.90;63.40;;;;;;5080391;28;20056;-51
2022/06/25 05:00:47;;;;;;;2.72;1.30;;;20.00;63.50;;;;;;5079309;28;20051;-48
2022/06/25 05:03:15;;;;;;;2.45;1.38;;;20.00;63.60;;;;;;5081369;28;20058;-56
2022/06/25 05:05:43;;;;;;;2.75;2.03;;;20.00;63.50;;;;;;5080700;28;20492;-53
2022/06/25 05:08:10;;;;;;;4.20;1.77;;;20.10;63.60;;;;;;5083123;28;20060;-53
2022/06/25 05:10:38;;;;;;;3.50;1.50;;;20.10;63.70;;;;;;5080678;28;20048;-51
2022/06/25 05:13:14;;;;;;;2.78;1.40;;;20.10;63.70;;;;;;5079659;28;20581;-51
2022/06/25 05:15:43;;;;;;;1.80;1.58;;;20.10;63.70;;;;;;5081456;28;20048;-56
2022/06/25 05:18:13;;;;;;;5.85;1.90;;;20.20;63.70;;;;;;5076602;28;20051;-51
2022/06/25 05:20:42;;;;;;;8.70;1.98;;;20.20;63.80;;;;;;5081935;28;20511;-53
2022/06/25 05:23:10;;;;;;;4.07;1.40;;;20.30;63.90;;;;;;5076479;28;20080;-53
2022/06/25 05:25:38;;;;;;;1.55;1.45;;;20.30;64.00;;;;;;5081921;28;20052;-53
2022/06/25 05:28:07;;;;;;;1.95;1.40;;;20.30;64.10;;;;;;5078878;28;20060;-53
2022/06/25 05:30:35;;;;;;;3.80;1.60;;;20.40;64.20;;;;;;5079733;28;20114;-52
2022/06/25 05:33:03;;;;;;;6.60;1.42;;;20.40;64.10;;;;;;5075765;28;20055;-52
2022/06/25 05:35:32;;;;;;;2.63;1.10;;;20.40;64.00;;;;;;5078258;28;20059;-51
2022/06/25 05:37:59;;;;;;;4.18;2.00;;;20.50;64.20;;;;;;5077478;28;20056;-51
2022/06/25 05:40:27;;;;;;;2.28;1.52;;;20.50;64.30;;;;;;5080672;28;20083;-50
2022/06/25 05:42:54;;;;;;;2.72;1.58;;;20.60;64.30;;;;;;5080287;28;20044;-51
2022/06/25 05:45:22;;;;;;;3.65;1.83;;;20.60;64.40;;;;;;5079807;28;20059;-48
2022/06/25 05:47:49;;;;;;;3.70;1.55;;;20.70;64.40;;;;;;5080474;28;20056;-50
2022/06/25 05:50:17;;;;;;;2.17;1.52;;;20.70;64.30;;;;;;5080936;28;20059;-50
2022/06/25 05:52:46;;;;;;;4.40;1.83;;;20.80;64.30;;;;;;5078711;28;20404;-53
2022/06/25 05:55:14;;;;;;;8.85;1.60;;;20.80;64.10;;;;;;5079476;28;20052;-48
2022/06/25 05:57:41;;;;;;;4.85;1.42;;;20.90;64.20;;;;;;5080412;28;21107;-49
2022/06/25 06:00:09;;;;;;;1.60;1.50;;;21.00;64.10;;;;;;5080256;28;20067;-49
2022/06/25 06:02:37;;;;;;;3.53;1.42;;;21.00;64.20;;;;;;5078418;28;20511;-50
2022/06/25 06:05:05;;;;;;;2.33;1.55;;;21.10;64.30;;;;;;5080381;28;20052;-52
2022/06/25 06:07:32;;;;;;;4.80;1.50;;;21.10;64.10;;;;;;5081992;28;20055;-50
2022/06/25 06:10:01;;;;;;;5.05;1.83;;;21.20;63.90;;;;;;5078485;28;20059;-48
2022/06/25 06:12:29;;;;;;;3.88;1.67;;;21.20;63.80;;;;;;5075219;28;20059;-51
2022/06/25 06:14:56;;;;;;;10.93;1.60;;;21.30;63.70;;;;;;5077392;28;20056;-49
2022/06/25 06:17:24;;;;;;;1.88;1.45;;;21.40;63.90;;;;;;5072972;28;21024;-52
2022/06/25 06:19:51;;;;;;;4.03;1.58;;;21.40;63.90;;;;;;5080323;28;20526;-51
2022/06/25 06:22:19;;;;;;;4.57;1.90;;;21.50;63.80;;;;;;5078955;28;20048;-50
2022/06/25 06:24:46;;;;;;;3.65;1.73;;;21.50;63.70;;;;;;5081484;28;20420;-52
2022/06/25 06:27:15;;;;;;;4.50;1.88;;;21.60;63.60;;;;;;5077538;28;20055;-57
2022/06/25 06:29:43;;;;;;;8.15;1.40;;;21.70;63.70;;;;;;5073364;28;20114;-51
2022/06/25 06:32:10;;;;;;;4.75;1.48;;;21.70;63.60;;;;;;5074376;28;20628;-50
2022/06/25 06:34:38;;;;;;;4.88;1.77;;;21.70;63.40;;;;;;5079745;28;20448;-52
2022/06/25 06:37:06;;;;;;;4.32;1.70;;;21.80;62.60;;;;;;5075525;28;20051;-51
2022/06/25 06:39:33;;;;;;;3.53;1.50;;;21.90;61.00;;;;;;5081636;28;20056;-49
2022/06/25 06:42:01;;;;;;;5.40;1.40;;;21.90;60.70;;;;;;5081626;28;20049;-50
2022/06/25 06:44:30;;;;;;;2.45;1.40;;;22.00;60.20;;;;;;5081112;28;20043;-54
2022/06/25 06:46:57;;;;;;;2.33;1.40;;;22.00;59.90;;;;;;5084064;28;20062;-48
2022/06/25 06:49:24;;;;;;;5.03;1.60;;;22.00;59.80;;;;;;5084151;28;20051;-58
2022/06/25 06:51:52;;;;;;;2.40;1.40;;;22.00;59.10;;;;;;5082222;28;20063;-51
2022/06/25 06:54:19;;;;;;;5.03;1.90;;;22.00;58.90;;;;;;5084874;28;20506;-54
2022/06/25 06:56:47;;;;;;;2.80;1.67;;;22.10;58.60;;;;;;5083320;28;20048;-50
2022/06/25 06:59:14;;;;;;;2.75;1.30;;;22.10;58.50;;;;;;5080336;28;20057;-54
2022/06/25 07:01:43;;;;;;;14.40;1.75;;;22.20;58.50;;;;;;5081068;28;20067;-55
2022/06/25 07:04:10;;;;;;;6.78;1.27;;;22.20;57.90;;;;;;5084146;28;20106;-53
2022/06/25 07:06:38;;;;;;;3.30;1.70;;;22.20;57.60;;;;;;5082223;28;20075;-51
2022/06/25 07:09:06;;;;;;;2.38;1.27;;;22.30;57.70;;;;;;5076988;28;20059;-55
2022/06/25 07:11:33;;;;;;;4.43;1.30;;;22.40;57.50;;;;;;5078737;28;20055;-54
2022/06/25 07:14:02;;;;;;;3.47;1.42;;;22.40;57.40;;;;;;5074049;28;20079;-55
2022/06/25 07:16:30;;;;;;;3.70;1.60;;;22.40;57.30;;;;;;5077373;28;20479;-51
2022/06/25 07:19:01;;;;;;;4.97;1.35;;;22.50;57.50;;;;;;5084453;28;20052;-49
2022/06/25 07:21:29;;;;;;;6.38;1.00;;;22.60;56.70;;;;;;5082897;28;20064;-49
2022/06/25 07:23:57;;;;;;;3.83;1.50;;;22.60;55.90;;;;;;5081312;28;20047;-54
2022/06/25 07:26:25;;;;;;;4.45;1.25;;;22.60;55.60;;;;;;5082271;28;20491;-54
2022/06/25 07:28:54;;;;;;;3.95;1.20;;;22.60;55.20;;;;;;5080683;28;20534;-52
2022/06/25 07:31:21;;;;;;;2.22;1.10;;;22.70;55.50;;;;;;5080052;28;20372;-53
2022/06/25 07:33:49;;;;;;;4.45;1.13;;;22.70;55.20;;;;;;5084506;28;20411;-52
2022/06/25 07:36:18;;;;;;;2.92;1.10;;;22.70;54.20;;;;;;5080828;28;20504;-52
2022/06/25 07:38:45;;;;;;;5.32;1.30;;;22.70;54.10;;;;;;5082651;28;20056;-54
2022/06/25 07:41:13;;;;;;;3.28;1.23;;;22.80;54.20;;;;;;5081569;28;20048;-54
2022/06/25 07:43:40;;;;;;;3.35;1.27;;;22.80;54.20;;;;;;5081805;28;20047;-50
2022/06/25 07:46:09;;;;;;;4.13;1.20;;;22.80;54.20;;;;;;5081957;28;20381;-51
2022/06/25 07:48:36;;;;;;;6.50;1.15;;;22.80;54.10;;;;;;5081319;28;20044;-57
2022/06/25 07:53:51;;;;;;;3.40;1.20;;;22.90;54.40;;;;;;5083101;28;20066;-53
2022/06/25 07:56:18;;;;;;;2.20;1.40;;;23.00;54.10;;;;;;5075609;28;20060;-50
2022/06/25 07:58:46;;;;;;;4.65;1.30;;;23.00;54.10;;;;;;5071693;28;20055;-50
2022/06/25 08:01:13;;;;;;;3.63;1.08;;;23.00;54.20;;;;;;5076816;28;20052;-53
2022/06/25 08:03:41;;;;;;;1.50;0.95;;;23.10;54.30;;;;;;5080880;28;20052;-58
2022/06/25 08:06:10;;;;;;;3.17;1.60;;;23.10;54.20;;;;;;5084495;28;20052;-50
2022/06/25 08:08:38;;;;;;;4.32;1.40;;;23.10;54.00;;;;;;5079358;28;20063;-55
2022/06/25 08:11:08;;;;;;;7.43;2.00;;;23.20;54.00;;;;;;5073925;28;20055;-51
2022/06/25 08:13:36;;;;;;;3.05;1.30;;;23.20;53.70;;;;;;5079242;28;20056;-53
2022/06/25 08:16:05;;;;;;;4.38;1.42;;;23.30;53.80;;;;;;5079920;28;20495;-49
2022/06/25 08:18:33;;;;;;;3.47;1.20;;;23.40;53.70;;;;;;5083725;28;20512;-55
2022/06/25 08:21:01;;;;;;;2.63;1.10;;;23.40;53.30;;;;;;5074268;28;20059;-49
2022/06/25 08:23:29;;;;;;;3.47;1.50;;;23.50;53.50;;;;;;5073609;28;20063;-57
2022/06/25 08:25:56;;;;;;;1.45;1.00;;;23.50;53.50;;;;;;5082820;28;20047;-51
2022/06/25 08:28:26;;;;;;;1.88;1.05;;;23.60;53.00;;;;;;5077433;28;20048;-56
2022/06/25 08:30:53;;;;;;;2.65;1.27;;;23.60;53.00;;;;;;5075547;28;20059;-54
2022/06/25 08:33:21;;;;;;;2.95;1.35;;;23.70;52.90;;;;;;5077743;28;20067;-50
2022/06/25 08:35:48;;;;;;;6.35;1.30;;;23.80;52.10;;;;;;5075543;28;20048;-52
2022/06/25 08:38:16;;;;;;;3.22;1.23;;;23.80;51.90;;;;;;5079796;28;20059;-56
2022/06/25 08:40:44;;;;;;;2.05;1.00;;;23.80;51.90;;;;;;5077220;28;20047;-51
2022/06/25 08:43:11;;;;;;;6.13;1.35;;;23.80;52.30;;;;;;5075170;28;20821;-57
2022/06/25 08:45:41;;;;;;;3.50;1.23;;;23.90;52.90;;;;;;5071497;28;20059;-49
2022/06/25 08:48:17;;;;;;;4.05;1.23;;;24.00;53.00;;;;;;5080111;28;20055;-49
2022/06/25 08:50:45;;;;;;;4.47;1.10;;;24.00;53.10;;;;;;5077927;28;20056;-49
2022/06/25 08:53:14;;;;;;;2.75;1.58;;;24.10;53.40;;;;;;5080567;28;20060;-55
2022/06/25 08:55:43;;;;;;;6.97;1.50;;;24.10;53.30;;;;;;5078441;28;20489;-51
2022/06/25 08:58:12;;;;;;;6.68;1.23;;;24.20;53.40;;;;;;5081173;28;20060;-51
2022/06/25 09:00:43;;;;;;;4.85;1.88;;;24.20;53.50;;;;;;5077491;28;20047;-49
2022/06/25 09:03:11;;;;;;;2.75;1.23;;;24.30;53.50;;;;;;5081976;28;20055;-56
2022/06/25 09:05:40;;;;;;;4.35;1.35;;;24.30;53.40;;;;;;5079805;28;20040;-52
2022/06/25 09:08:09;;;;;;;3.33;1.42;;;24.40;53.20;;;;;;5080072;28;20055;-53
2022/06/25 09:10:38;;;;;;;2.30;1.10;;;24.40;52.90;;;;;;5075648;28;20063;-51
2022/06/25 09:13:08;;;;;;;3.72;1.48;;;24.50;53.10;;;;;;5080463;28;20063;-54
2022/06/25 09:15:39;;;;;;;4.60;1.20;;;24.50;53.10;;;;;;5075343;28;20048;-56
2022/06/25 09:18:10;;;;;;;2.50;1.10;;;24.50;52.30;;;;;;5079702;28;20063;-51
2022/06/25 09:20:55;;;;;;;5.45;1.30;;;24.60;51.90;;;;;;5080585;28;20063;-49
2022/06/25 09:23:23;;;;;;;2.30;1.10;;;24.70;52.20;;;;;;5075586;28;20056;-53
2022/06/25 09:26:02;;;;;;;3.25;1.40;;;24.80;52.00;;;;;;5079359;28;20059;-53
2022/06/25 09:28:31;;;;;;;1.70;1.10;;;24.80;51.30;;;;;;5077144;28;20419;-49
2022/06/25 09:30:58;;;;;;;5.55;1.38;;;24.90;51.50;;;;;;5076350;28;20054;-53
2022/06/25 09:33:27;;;;;;;2.55;1.23;;;24.90;51.30;;;;;;5080719;28;20052;-50
2022/06/25 09:35:56;;;;;;;5.07;1.33;;;24.90;50.80;;;;;;5079579;28;20472;-57
2022/06/25 09:38:24;;;;;;;3.95;1.88;;;25.00;50.80;;;;;;5079630;28;20423;-50
2022/06/25 09:40:53;;;;;;;7.43;1.20;;;25.00;51.10;;;;;;5077363;28;20048;-51
2022/06/25 09:43:22;;;;;;;4.13;1.42;;;25.00;50.90;;;;;;5080917;28;20063;-49
2022/06/25 09:45:51;;;;;;;1.60;1.20;;;25.10;51.00;;;;;;5075370;28;20403;-53
2022/06/25 09:48:20;;;;;;;6.80;1.63;;;25.20;51.30;;;;;;5076991;28;20052;-50
2022/06/25 09:51:18;;;;;;;2.80;1.35;;;25.20;50.90;;;;;;5076776;28;20063;-56
2022/06/25 09:53:48;;;;;;;3.22;1.30;;;25.30;50.80;;;;;;5022398;28;20519;-54
2022/06/25 09:56:17;;;;;;;3.15;1.30;;;25.40;50.50;;;;;;5080301;28;20059;-54
2022/06/25 09:58:45;;;;;;;2.85;1.83;;;25.40;51.10;;;;;;5077543;28;20052;-50
2022/06/25 10:01:17;;;;;;;1.92;1.20;;;25.50;50.60;;;;;;5074717;28;20063;-50
2022/06/25 10:03:44;;;;;;;4.15;1.20;;;25.60;50.30;;;;;;5078494;28;20515;-52
2022/06/25 10:06:14;;;;;;;3.78;1.35;;;25.60;50.20;;;;;;5079371;28;20511;-53
2022/06/25 10:08:47;;;;;;;3.88;1.50;;;25.70;50.10;;;;;;5081169;28;20052;-56
2022/06/25 10:11:15;;;;;;;4.87;1.00;;;25.80;49.70;;;;;;5078262;28;20060;-52
2022/06/25 10:13:43;;;;;;;4.75;1.27;;;25.80;49.70;;;;;;5077467;28;20051;-51
2022/06/25 10:16:13;;;;;;;1.58;1.00;;;25.80;49.50;;;;;;5081977;28;20381;-49
2022/06/25 10:18:42;;;;;;;4.57;1.27;;;25.80;49.20;;;;;;5082552;28;20052;-53
2022/06/25 10:21:10;;;;;;;4.47;1.38;;;25.90;48.80;;;;;;5073151;28;20488;-55
2022/06/25 10:23:39;;;;;;;4.15;1.55;;;25.90;48.80;;;;;;5082080;28;20499;-51
2022/06/25 10:26:08;;;;;;;10.05;1.38;;;26.00;48.70;;;;;;5085157;28;20048;-48
2022/06/25 10:28:36;;;;;;;2.55;1.33;;;26.00;48.50;;;;;;5074982;28;20114;-52
2022/06/25 10:31:07;;;;;;;4.93;1.27;;;26.00;48.90;;;;;;5079787;28;20055;-51
2022/06/25 10:33:51;;;;;;;1.75;1.00;;;26.00;48.70;;;;;;5082278;28;20550;-50
2022/06/25 10:36:39;;;;;;;2.83;1.30;;;26.00;48.60;;;;;;5077845;28;20420;-49
2022/06/25 10:39:36;;;;;;;2.72;1.40;;;26.10;48.90;;;;;;5084144;28;20060;-48
2022/06/25 10:45:51;;;;;;;2.40;1.17;;;26.20;48.70;;;;;;5044550;28;20224;-51
2022/06/25 10:48:22;;;;;;;1.98;1.00;;;26.20;48.10;;;;;;5039179;28;20412;-48
2022/06/25 10:50:51;;;;;;;3.05;1.20;;;26.20;48.30;;;;;;5070940;28;20059;-52
2022/06/25 10:53:28;;;;;;;4.40;1.42;;;26.30;48.40;;;;;;5080319;28;20051;-49
2022/06/25 10:56:12;;;;;;;5.43;1.48;;;26.30;48.10;;;;;;5080052;28;20423;-51
2022/06/25 10:58:44;;;;;;;;;;;26.40;48.00;;;;;;5080844;28;20055;-49
2022/06/25 11:01:21;;;;;;;1.70;1.08;;;26.40;48.60;;;;;;5084127;28;20294;-48
2022/06/25 11:03:53;;;;;;;1.90;1.05;;;26.50;48.00;;;;;;5085189;28;20056;-49
2022/06/25 11:06:23;;;;;;;1.70;1.15;;;26.50;47.60;;;;;;5082596;28;20534;-49
2022/06/25 11:08:52;;;;;;;2.30;1.08;;;26.50;47.50;;;;;;5084978;28;20059;-52
2022/06/25 11:11:31;;;;;;;1.55;0.98;;;26.50;47.30;;;;;;5083218;28;20056;-52
2022/06/25 11:14:02;;;;;;;1.85;1.13;;;26.60;47.00;;;;;;5083952;28;20519;-51
2022/06/25 11:16:30;;;;;;;5.70;0.98;;;26.50;47.10;;;;;;5083023;28;20475;-49
2022/06/25 11:19:14;;;;;;;2.45;0.90;;;26.60;47.20;;;;;;5081842;28;20067;-53
2022/06/25 11:21:42;;;;;;;;;;;26.60;46.70;;;;;;5084015;28;20048;-58
2022/06/25 11:24:15;;;;;;;1.20;0.93;;;26.60;47.30;;;;;;5084775;28;20379;-47
2022/06/25 11:29:35;;;;;;;2.42;1.00;;;26.60;47.20;;;;;;5087999;28;20058;-53
2022/06/25 11:32:02;;;;;;;4.30;1.30;;;26.60;47.00;;;;;;5082710;28;20052;-50
2022/06/25 11:34:30;;;;;;;2.80;1.17;;;26.60;47.00;;;;;;5082917;28;20048;-53
2022/06/25 11:37:07;;;;;;;3.15;1.00;;;26.60;46.90;;;;;;5082436;28;20056;-48
2022/06/25 11:39:37;;;;;;;2.53;1.10;;;26.60;46.80;;;;;;5084068;28;20052;-56
2022/06/25 11:42:08;;;;;;;3.70;1.40;;;26.60;46.70;;;;;;5082919;28;20423;-50
2022/06/25 11:44:42;;;;;;;1.35;0.98;;;26.60;46.60;;;;;;5082817;28;20206;-56
2022/06/25 11:47:12;;;;;;;2.05;1.05;;;26.60;46.60;;;;;;5083508;28;20048;-50
2022/06/25 11:49:43;;;;;;;2.90;1.38;;;26.60;46.50;;;;;;5084269;28;20411;-51
2022/06/25 11:52:11;;;;;;;5.43;0.98;;;26.60;45.80;;;;;;5083080;28;20048;-48
2022/06/25 11:54:41;;;;;;;3.28;0.82;;;26.70;45.50;;;;;;5083467;28;20056;-52
2022/06/25 11:57:10;;;;;;;4.35;1.30;;;26.70;45.60;;;;;;5082916;28;20052;-51
2022/06/25 11:59:41;;;;;;;1.75;0.93;;;26.80;45.90;;;;;;5079579;28;20047;-50
2022/06/25 12:02:09;;;;;;;2.42;1.25;;;26.80;45.00;;;;;;5082587;28;20055;-49
2022/06/25 12:04:48;;;;;;;3.55;1.17;;;26.90;44.90;;;;;;5081303;28;20059;-57
2022/06/25 12:07:21;;;;;;;2.90;0.90;;;26.90;44.60;;;;;;5081892;28;20056;-52
2022/06/25 12:09:49;;;;;;;1.95;0.80;;;27.00;44.70;;;;;;5083953;28;20099;-50
2022/06/25 12:12:18;;;;;;;2.33;1.00;;;27.00;44.80;;;;;;5081291;28;20059;-53
2022/06/25 12:14:48;;;;;;;7.93;1.10;;;27.10;44.30;;;;;;5082725;28;20420;-48
2022/06/25 12:17:15;;;;;;;4.10;0.90;;;27.10;44.60;;;;;;5081750;28;20052;-52
2022/06/25 12:19:48;;;;;;;5.38;0.70;;;27.20;44.60;;;;;;5084119;28;20063;-50
2022/06/25 12:22:22;;;;;;;3.25;1.13;;;27.20;44.70;;;;;;5082251;28;20048;-48
2022/06/25 12:24:50;;;;;;;3.38;1.00;;;27.20;44.60;;;;;;5082571;28;20052;-53
2022/06/25 12:27:18;;;;;;;2.55;1.00;;;27.30;45.50;;;;;;5081139;28;20411;-50
2022/06/25 12:29:48;;;;;;;4.03;0.93;;;27.30;44.70;;;;;;5081124;28;20427;-49
2022/06/25 12:32:17;;;;;;;2.63;0.88;;;27.30;43.70;;;;;;5078744;28;20060;-53
2022/06/25 12:34:49;;;;;;;2.10;0.90;;;27.30;43.20;;;;;;5082706;28;20519;-48
2022/06/25 12:37:29;;;;;;;2.25;1.02;;;27.30;43.20;;;;;;5081887;28;20407;-49
2022/06/25 12:39:59;;;;;;;1.95;1.00;;;27.30;42.80;;;;;;5082775;28;20063;-50
2022/06/25 12:42:28;;;;;;;3.22;1.10;;;27.30;43.50;;;;;;5081195;28;20060;-48
2022/06/25 12:44:58;;;;;;;1.75;1.00;;;27.30;44.30;;;;;;5081019;28;20662;-50
2022/06/25 12:47:26;;;;;;;2.17;0.80;;;27.40;44.00;;;;;;5082091;28;20052;-50
2022/06/25 12:49:54;;;;;;;1.95;0.95;;;27.30;43.50;;;;;;5083295;28;20056;-48
2022/06/25 12:52:26;;;;;;;2.05;0.98;;;27.40;43.40;;;;;;5081449;28;20047;-50
2022/06/25 12:54:55;;;;;;;1.60;0.85;;;27.40;43.50;;;;;;5081214;28;20063;-49
2022/06/25 12:57:28;;;;;;;3.83;1.02;;;27.50;43.70;;;;;;5081395;28;20048;-52
2022/06/25 13:00:00;;;;;;;3.88;1.15;;;27.60;43.90;;;;;;5079208;28;20052;-52
2022/06/25 13:02:28;;;;;;;1.70;0.90;;;27.60;43.70;;;;;;5077201;28;20056;-50
2022/06/25 13:04:55;;;;;;;2.55;1.20;;;27.70;43.00;;;;;;5079195;28;20495;-54
2022/06/25 13:07:23;;;;;;;2.42;1.10;;;27.70;43.30;;;;;;5081701;28;20047;-57
2022/06/25 13:09:52;;;;;;;1.73;1.30;;;27.80;43.50;;;;;;5078253;28;20052;-54
2022/06/25 13:12:19;;;;;;;3.42;1.33;;;27.80;43.30;;;;;;5080187;28;20081;-54
2022/06/25 13:14:48;;;;;;;4.10;1.42;;;27.80;43.30;;;;;;5080992;28;20052;-54